This is the latest recevied weather packets stored in our database for station/object KA3WVU. If no packets are shown the sender has not sent any weather packets the latest 10 day(s).
| Time | Temp. | Humidity | Pressure | Rain* | Wind** | Luminosity | Snow |
|---|---|---|---|---|---|---|---|
| 1777902822 | 12.22° C | 54% | 1010.9 hPa | 0 mm | - | 354 W/m² | - |
| 1777902519 | 12.22° C | 53% | 1010.9 hPa | 0 mm | - | 180 W/m² | - |
| 1777902216 | 12.22° C | 54% | 1010.9 hPa | 0 mm | - | 189 W/m² | - |
| 1777901914 | 11.67° C | 55% | 1011 hPa | 0 mm | - | 269 W/m² | - |
| 1777901612 | 11.67° C | 55% | 1010.8 hPa | 0 mm | - | 221 W/m² | - |
| 1777901309 | 10.56° C | 56% | 1011 hPa | 0 mm | - | 192 W/m² | - |
| 1777901006 | 10.56° C | 58% | 1010.9 hPa | 0 mm | - | 190 W/m² | - |
| 1777900704 | 10.56° C | 57% | 1010.9 hPa | 0 mm | - | 117 W/m² | - |
| 1777900400 | 10° C | 57% | 1011 hPa | 0 mm | - | 182 W/m² | - |
| 1777900097 | 10° C | 58% | 1010.9 hPa | 0 mm | - | 115 W/m² | - |
| 1777899793 | 9.44° C | 57% | 1011.1 hPa | 0 mm | - | 201 W/m² | - |
| 1777899490 | 9.44° C | 57% | 1011 hPa | 0 mm | - | 107 W/m² | - |
| 1777899189 | 9.44° C | 57% | 1011 hPa | 0 mm | - | 142 W/m² | - |
| 1777898886 | 8.89° C | 58% | 1011.1 hPa | 0 mm | - | 132 W/m² | - |
| 1777898583 | 8.89° C | 59% | 1011.1 hPa | 0 mm | - | 112 W/m² | - |
| 1777898280 | 8.89° C | 58% | 1011.1 hPa | 0 mm | - | 103 W/m² | - |
| 1777897977 | 8.33° C | 59% | 1011.1 hPa | 0 mm | - | 104 W/m² | - |
| 1777897673 | 8.33° C | 58% | 1011.3 hPa | 0 mm | - | 98 W/m² | - |
| 1777897369 | 8.33° C | 59% | 1011.2 hPa | 0 mm | - | 95 W/m² | - |
| 1777897065 | 8.33° C | 59% | 1011.2 hPa | 0 mm | - | 90 W/m² | - |
| 1777896762 | 8.33° C | 58% | 1011 hPa | 0 mm | - | 72 W/m² | - |
| 1777896460 | 7.78° C | 59% | 1011.2 hPa | 0 mm | - | 78 W/m² | - |
| 1777896157 | 7.78° C | 59% | 1011.2 hPa | 0 mm | - | 80 W/m² | - |
| 1777895855 | 7.78° C | 61% | 1011.1 hPa | 0 mm | - | 67 W/m² | - |
| 1777895552 | 7.78° C | 61% | 1011.1 hPa | 0 mm | - | 65 W/m² | - |
* Rain latest hour (hover to see other rain measurements)
** Current wind speed in m/s (hover to see current wind gust speed)